sensor_id;sensor_type;location;lat;lon;timestamp;P1;durP1;ratioP1;P2;durP2;ratioP2
4700;SDS011;8724;51.272;6.554;2024-03-23T00:55:56;3.80;;;1.97;;
4700;SDS011;8724;51.272;6.554;2024-03-23T00:58:23;4.00;;;1.90;;
4700;SDS011;8724;51.272;6.554;2024-03-23T01:00:49;5.20;;;2.17;;
4700;SDS011;8724;51.272;6.554;2024-03-23T01:03:16;6.13;;;2.10;;
4700;SDS011;8724;51.272;6.554;2024-03-23T01:05:42;9.43;;;2.90;;
4700;SDS011;8724;51.272;6.554;2024-03-23T01:08:11;3.63;;;1.70;;
4700;SDS011;8724;51.272;6.554;2024-03-23T01:10:37;6.77;;;2.00;;
4700;SDS011;8724;51.272;6.554;2024-03-23T01:13:04;5.13;;;1.77;;
4700;SDS011;8724;51.272;6.554;2024-03-23T01:15:30;6.23;;;2.13;;
4700;SDS011;8724;51.272;6.554;2024-03-23T01:17:58;5.90;;;2.57;;
4700;SDS011;8724;51.272;6.554;2024-03-23T01:20:24;7.97;;;2.30;;
4700;SDS011;8724;51.272;6.554;2024-03-23T01:22:51;6.63;;;1.67;;
4700;SDS011;8724;51.272;6.554;2024-03-23T01:25:18;4.83;;;2.20;;
4700;SDS011;8724;51.272;6.554;2024-03-23T01:27:45;4.53;;;2.20;;
4700;SDS011;8724;51.272;6.554;2024-03-23T01:30:11;5.50;;;1.90;;
4700;SDS011;8724;51.272;6.554;2024-03-23T01:32:41;6.47;;;1.97;;
4700;SDS011;8724;51.272;6.554;2024-03-23T01:35:08;7.33;;;2.10;;
4700;SDS011;8724;51.272;6.554;2024-03-23T01:37:35;5.83;;;2.43;;
4700;SDS011;8724;51.272;6.554;2024-03-23T01:40:01;4.40;;;1.93;;
4700;SDS011;8724;51.272;6.554;2024-03-23T01:42:31;4.60;;;1.90;;
4700;SDS011;8724;51.272;6.554;2024-03-23T01:44:57;6.90;;;1.90;;
4700;SDS011;8724;51.272;6.554;2024-03-23T01:47:24;7.80;;;1.93;;
4700;SDS011;8724;51.272;6.554;2024-03-23T01:49:50;11.63;;;2.10;;
4700;SDS011;8724;51.272;6.554;2024-03-23T01:52:17;5.67;;;1.73;;
4700;SDS011;8724;51.272;6.554;2024-03-23T01:54:44;9.07;;;1.67;;
4700;SDS011;8724;51.272;6.554;2024-03-23T01:57:11;3.73;;;1.90;;
4700;SDS011;8724;51.272;6.554;2024-03-23T01:59:41;5.73;;;2.77;;
4700;SDS011;8724;51.272;6.554;2024-03-23T02:02:09;5.00;;;1.67;;
4700;SDS011;8724;51.272;6.554;2024-03-23T02:04:35;3.80;;;1.40;;
4700;SDS011;8724;51.272;6.554;2024-03-23T02:07:02;4.20;;;1.47;;
4700;SDS011;8724;51.272;6.554;2024-03-23T02:09:30;2.20;;;1.47;;
4700;SDS011;8724;51.272;6.554;2024-03-23T02:11:58;6.50;;;2.20;;
4700;SDS011;8724;51.272;6.554;2024-03-23T02:14:24;5.50;;;1.90;;
4700;SDS011;8724;51.272;6.554;2024-03-23T02:16:52;2.87;;;1.53;;
4700;SDS011;8724;51.272;6.554;2024-03-23T02:19:18;2.57;;;1.73;;
4700;SDS011;8724;51.272;6.554;2024-03-23T02:21:45;2.60;;;1.50;;
4700;SDS011;8724;51.272;6.554;2024-03-23T02:24:13;5.63;;;1.83;;
4700;SDS011;8724;51.272;6.554;2024-03-23T02:26:41;3.17;;;1.57;;
4700;SDS011;8724;51.272;6.554;2024-03-23T02:29:07;6.73;;;2.00;;
4700;SDS011;8724;51.272;6.554;2024-03-23T02:31:35;3.93;;;1.60;;
4700;SDS011;8724;51.272;6.554;2024-03-23T02:34:01;3.80;;;1.87;;
4700;SDS011;8724;51.272;6.554;2024-03-23T02:36:29;6.10;;;2.70;;
4700;SDS011;8724;51.272;6.554;2024-03-23T02:38:56;6.93;;;2.20;;
4700;SDS011;8724;51.272;6.554;2024-03-23T02:41:25;6.47;;;1.80;;
4700;SDS011;8724;51.272;6.554;2024-03-23T02:43:51;2.73;;;1.37;;
4700;SDS011;8724;51.272;6.554;2024-03-23T02:46:18;5.20;;;1.67;;
4700;SDS011;8724;51.272;6.554;2024-03-23T02:48:44;8.23;;;2.00;;
4700;SDS011;8724;51.272;6.554;2024-03-23T02:51:14;4.73;;;1.57;;
4700;SDS011;8724;51.272;6.554;2024-03-23T02:53:41;4.00;;;2.20;;
4700;SDS011;8724;51.272;6.554;2024-03-23T02:56:08;6.83;;;2.20;;
4700;SDS011;8724;51.272;6.554;2024-03-23T02:58:35;4.43;;;1.53;;
4700;SDS011;8724;51.272;6.554;2024-03-23T03:01:02;6.10;;;1.70;;
4700;SDS011;8724;51.272;6.554;2024-03-23T03:03:29;7.37;;;2.33;;
4700;SDS011;8724;51.272;6.554;2024-03-23T03:05:56;4.07;;;2.40;;
4700;SDS011;8724;51.272;6.554;2024-03-23T03:08:22;3.70;;;1.70;;
4700;SDS011;8724;51.272;6.554;2024-03-23T03:10:49;4.77;;;1.80;;
4700;SDS011;8724;51.272;6.554;2024-03-23T03:13:15;5.87;;;1.93;;
4700;SDS011;8724;51.272;6.554;2024-03-23T03:15:44;6.90;;;2.83;;
4700;SDS011;8724;51.272;6.554;2024-03-23T03:18:11;9.97;;;2.80;;
4700;SDS011;8724;51.272;6.554;2024-03-23T03:20:38;6.93;;;2.90;;
4700;SDS011;8724;51.272;6.554;2024-03-23T03:23:04;2.70;;;1.50;;
4700;SDS011;8724;51.272;6.554;2024-03-23T03:25:31;4.40;;;1.73;;
4700;SDS011;8724;51.272;6.554;2024-03-23T03:27:58;7.70;;;2.40;;
4700;SDS011;8724;51.272;6.554;2024-03-23T03:30:25;5.70;;;1.40;;
4700;SDS011;8724;51.272;6.554;2024-03-23T03:32:53;3.70;;;2.17;;
4700;SDS011;8724;51.272;6.554;2024-03-23T03:35:20;8.40;;;2.10;;
4700;SDS011;8724;51.272;6.554;2024-03-23T03:37:46;7.60;;;2.47;;
4700;SDS011;8724;51.272;6.554;2024-03-23T03:40:14;5.63;;;2.13;;
4700;SDS011;8724;51.272;6.554;2024-03-23T03:42:40;5.43;;;2.20;;
4700;SDS011;8724;51.272;6.554;2024-03-23T03:45:07;4.90;;;2.63;;
4700;SDS011;8724;51.272;6.554;2024-03-23T03:47:33;3.60;;;1.70;;
4700;SDS011;8724;51.272;6.554;2024-03-23T03:50:02;5.43;;;2.43;;
4700;SDS011;8724;51.272;6.554;2024-03-23T03:52:28;6.17;;;2.00;;
4700;SDS011;8724;51.272;6.554;2024-03-23T03:55:00;4.80;;;1.73;;
4700;SDS011;8724;51.272;6.554;2024-03-23T03:57:27;10.50;;;2.57;;
4700;SDS011;8724;51.272;6.554;2024-03-23T03:59:55;7.37;;;2.63;;
4700;SDS011;8724;51.272;6.554;2024-03-23T04:02:21;3.23;;;2.23;;
4700;SDS011;8724;51.272;6.554;2024-03-23T04:04:48;8.30;;;2.70;;
4700;SDS011;8724;51.272;6.554;2024-03-23T04:07:16;10.67;;;2.70;;
4700;SDS011;8724;51.272;6.554;2024-03-23T04:09:44;5.57;;;2.13;;
4700;SDS011;8724;51.272;6.554;2024-03-23T04:12:10;7.27;;;1.93;;
4700;SDS011;8724;51.272;6.554;2024-03-23T04:14:37;4.40;;;2.30;;
4700;SDS011;8724;51.272;6.554;2024-03-23T04:17:03;6.10;;;2.50;;
4700;SDS011;8724;51.272;6.554;2024-03-23T04:19:30;10.37;;;2.37;;
4700;SDS011;8724;51.272;6.554;2024-03-23T04:21:56;6.30;;;2.37;;
4700;SDS011;8724;51.272;6.554;2024-03-23T04:24:25;8.40;;;2.90;;
4700;SDS011;8724;51.272;6.554;2024-03-23T04:26:52;3.80;;;2.70;;
4700;SDS011;8724;51.272;6.554;2024-03-23T04:29:19;5.13;;;2.70;;
4700;SDS011;8724;51.272;6.554;2024-03-23T04:31:45;4.00;;;2.33;;
4700;SDS011;8724;51.272;6.554;2024-03-23T04:34:12;4.77;;;2.10;;
4700;SDS011;8724;51.272;6.554;2024-03-23T04:36:39;11.23;;;3.70;;
4700;SDS011;8724;51.272;6.554;2024-03-23T04:39:06;4.50;;;2.30;;
4700;SDS011;8724;51.272;6.554;2024-03-23T04:41:35;7.73;;;2.83;;
4700;SDS011;8724;51.272;6.554;2024-03-23T04:44:03;8.73;;;3.00;;
4700;SDS011;8724;51.272;6.554;2024-03-23T04:46:30;5.00;;;2.70;;
4700;SDS011;8724;51.272;6.554;2024-03-23T04:48:56;11.67;;;2.73;;
4700;SDS011;8724;51.272;6.554;2024-03-23T04:51:23;6.20;;;2.77;;
4700;SDS011;8724;51.272;6.554;2024-03-23T04:53:49;9.07;;;2.90;;
4700;SDS011;8724;51.272;6.554;2024-03-23T04:56:18;7.57;;;2.93;;
4700;SDS011;8724;51.272;6.554;2024-03-23T04:58:46;7.67;;;3.17;;
4700;SDS011;8724;51.272;6.554;2024-03-23T05:01:13;6.90;;;3.27;;
4700;SDS011;8724;51.272;6.554;2024-03-23T05:03:40;7.53;;;3.20;;
4700;SDS011;8724;51.272;6.554;2024-03-23T05:06:07;8.33;;;3.70;;
4700;SDS011;8724;51.272;6.554;2024-03-23T05:08:34;7.33;;;3.37;;
4700;SDS011;8724;51.272;6.554;2024-03-23T05:11:00;11.10;;;4.30;;
4700;SDS011;8724;51.272;6.554;2024-03-23T05:13:28;10.10;;;2.90;;
4700;SDS011;8724;51.272;6.554;2024-03-23T05:15:55;9.60;;;3.30;;
4700;SDS011;8724;51.272;6.554;2024-03-23T05:18:22;7.93;;;3.50;;
4700;SDS011;8724;51.272;6.554;2024-03-23T05:20:55;6.83;;;3.17;;
4700;SDS011;8724;51.272;6.554;2024-03-23T05:23:22;9.27;;;3.47;;
4700;SDS011;8724;51.272;6.554;2024-03-23T05:25:49;6.60;;;3.23;;
4700;SDS011;8724;51.272;6.554;2024-03-23T05:28:17;7.37;;;2.87;;
4700;SDS011;8724;51.272;6.554;2024-03-23T05:30:43;4.80;;;2.60;;
4700;SDS011;8724;51.272;6.554;2024-03-23T05:33:11;7.70;;;3.50;;
4700;SDS011;8724;51.272;6.554;2024-03-23T05:35:37;7.03;;;3.13;;
4700;SDS011;8724;51.272;6.554;2024-03-23T05:38:05;11.90;;;3.20;;
4700;SDS011;8724;51.272;6.554;2024-03-23T05:40:31;8.77;;;3.20;;
4700;SDS011;8724;51.272;6.554;2024-03-23T05:43:02;11.17;;;4.50;;
4700;SDS011;8724;51.272;6.554;2024-03-23T05:45:29;8.50;;;3.90;;
4700;SDS011;8724;51.272;6.554;2024-03-23T05:47:56;7.73;;;2.83;;
4700;SDS011;8724;51.272;6.554;2024-03-23T05:50:23;9.30;;;3.57;;
4700;SDS011;8724;51.272;6.554;2024-03-23T05:52:51;7.07;;;3.40;;
4700;SDS011;8724;51.272;6.554;2024-03-23T05:55:17;5.50;;;3.33;;
4700;SDS011;8724;51.272;6.554;2024-03-23T05:57:44;8.83;;;4.20;;
4700;SDS011;8724;51.272;6.554;2024-03-23T06:00:11;7.50;;;3.10;;
4700;SDS011;8724;51.272;6.554;2024-03-23T06:02:42;9.83;;;3.80;;
4700;SDS011;8724;51.272;6.554;2024-03-23T06:05:10;7.53;;;3.63;;
4700;SDS011;8724;51.272;6.554;2024-03-23T06:07:38;8.43;;;3.23;;
4700;SDS011;8724;51.272;6.554;2024-03-23T06:10:05;9.50;;;3.50;;
4700;SDS011;8724;51.272;6.554;2024-03-23T06:12:33;10.30;;;3.50;;
4700;SDS011;8724;51.272;6.554;2024-03-23T06:14:59;7.00;;;3.30;;
4700;SDS011;8724;51.272;6.554;2024-03-23T06:17:26;8.33;;;3.40;;
4700;SDS011;8724;51.272;6.554;2024-03-23T06:19:52;6.70;;;3.10;;
4700;SDS011;8724;51.272;6.554;2024-03-23T06:22:19;9.90;;;3.47;;
4700;SDS011;8724;51.272;6.554;2024-03-23T06:24:47;10.03;;;3.40;;
4700;SDS011;8724;51.272;6.554;2024-03-23T06:27:14;9.43;;;3.40;;
4700;SDS011;8724;51.272;6.554;2024-03-23T06:29:40;11.53;;;4.47;;
4700;SDS011;8724;51.272;6.554;2024-03-23T06:32:07;7.80;;;3.67;;
4700;SDS011;8724;51.272;6.554;2024-03-23T06:34:34;8.57;;;4.70;;
4700;SDS011;8724;51.272;6.554;2024-03-23T06:37:01;10.93;;;4.50;;
4700;SDS011;8724;51.272;6.554;2024-03-23T06:39:28;5.20;;;3.70;;
4700;SDS011;8724;51.272;6.554;2024-03-23T06:41:57;11.43;;;4.40;;
4700;SDS011;8724;51.272;6.554;2024-03-23T06:44:23;8.40;;;4.70;;
4700;SDS011;8724;51.272;6.554;2024-03-23T06:46:50;6.00;;;3.57;;
4700;SDS011;8724;51.272;6.554;2024-03-23T06:49:16;8.40;;;4.10;;
4700;SDS011;8724;51.272;6.554;2024-03-23T06:51:44;8.73;;;4.40;;
4700;SDS011;8724;51.272;6.554;2024-03-23T06:54:10;7.80;;;4.37;;
4700;SDS011;8724;51.272;6.554;2024-03-23T06:56:38;9.30;;;4.40;;
4700;SDS011;8724;51.272;6.554;2024-03-23T06:59:05;9.40;;;4.57;;
4700;SDS011;8724;51.272;6.554;2024-03-23T07:01:33;8.93;;;4.90;;
4700;SDS011;8724;51.272;6.554;2024-03-23T07:03:59;11.53;;;4.50;;
4700;SDS011;8724;51.272;6.554;2024-03-23T07:06:26;11.97;;;4.63;;
4700;SDS011;8724;51.272;6.554;2024-03-23T07:08:53;8.43;;;5.00;;
4700;SDS011;8724;51.272;6.554;2024-03-23T07:11:20;14.30;;;4.90;;
4700;SDS011;8724;51.272;6.554;2024-03-23T07:13:49;15.00;;;4.73;;
4700;SDS011;8724;51.272;6.554;2024-03-23T07:16:18;8.23;;;4.30;;
4700;SDS011;8724;51.272;6.554;2024-03-23T07:18:44;7.17;;;4.07;;
4700;SDS011;8724;51.272;6.554;2024-03-23T07:21:11;6.20;;;3.63;;
4700;SDS011;8724;51.272;6.554;2024-03-23T07:23:37;9.33;;;4.37;;
4700;SDS011;8724;51.272;6.554;2024-03-23T07:26:07;13.27;;;5.20;;
4700;SDS011;8724;51.272;6.554;2024-03-23T07:28:33;9.47;;;4.00;;
4700;SDS011;8724;51.272;6.554;2024-03-23T07:31:02;13.70;;;4.73;;
4700;SDS011;8724;51.272;6.554;2024-03-23T07:33:30;11.37;;;4.87;;
4700;SDS011;8724;51.272;6.554;2024-03-23T07:35:58;11.17;;;4.47;;
4700;SDS011;8724;51.272;6.554;2024-03-23T07:38:26;12.80;;;4.33;;
4700;SDS011;8724;51.272;6.554;2024-03-23T07:41:02;9.10;;;4.30;;
4700;SDS011;8724;51.272;6.554;2024-03-23T07:43:28;12.57;;;4.87;;
4700;SDS011;8724;51.272;6.554;2024-03-23T07:45:55;13.93;;;5.10;;
4700;SDS011;8724;51.272;6.554;2024-03-23T07:48:21;9.67;;;5.50;;
4700;SDS011;8724;51.272;6.554;2024-03-23T07:50:57;8.80;;;4.40;;
4700;SDS011;8724;51.272;6.554;2024-03-23T07:53:24;10.27;;;4.53;;
4700;SDS011;8724;51.272;6.554;2024-03-23T07:55:55;12.47;;;4.43;;
4700;SDS011;8724;51.272;6.554;2024-03-23T07:58:22;11.17;;;3.80;;
4700;SDS011;8724;51.272;6.554;2024-03-23T08:00:49;8.47;;;4.07;;
4700;SDS011;8724;51.272;6.554;2024-03-23T08:03:15;5.30;;;3.50;;
4700;SDS011;8724;51.272;6.554;2024-03-23T08:05:42;5.63;;;3.23;;
4700;SDS011;8724;51.272;6.554;2024-03-23T08:08:10;8.93;;;3.63;;
4700;SDS011;8724;51.272;6.554;2024-03-23T08:10:37;9.40;;;3.70;;
4700;SDS011;8724;51.272;6.554;2024-03-23T08:13:12;7.00;;;3.03;;
4700;SDS011;8724;51.272;6.554;2024-03-23T08:15:39;5.93;;;3.17;;
4700;SDS011;8724;51.272;6.554;2024-03-23T08:18:05;10.20;;;4.30;;
4700;SDS011;8724;51.272;6.554;2024-03-23T08:20:32;11.40;;;5.50;;
4700;SDS011;8724;51.272;6.554;2024-03-23T08:22:59;10.60;;;4.70;;
4700;SDS011;8724;51.272;6.554;2024-03-23T08:25:27;9.23;;;4.87;;
4700;SDS011;8724;51.272;6.554;2024-03-23T08:27:56;8.10;;;3.33;;
4700;SDS011;8724;51.272;6.554;2024-03-23T08:30:23;7.80;;;3.20;;
4700;SDS011;8724;51.272;6.554;2024-03-23T08:32:49;4.50;;;2.43;;
4700;SDS011;8724;51.272;6.554;2024-03-23T08:35:16;11.23;;;3.63;;
4700;SDS011;8724;51.272;6.554;2024-03-23T08:37:42;9.77;;;3.50;;
4700;SDS011;8724;51.272;6.554;2024-03-23T08:40:09;9.30;;;3.03;;
4700;SDS011;8724;51.272;6.554;2024-03-23T08:42:38;9.20;;;3.60;;
4700;SDS011;8724;51.272;6.554;2024-03-23T08:45:05;9.33;;;3.33;;
4700;SDS011;8724;51.272;6.554;2024-03-23T08:47:34;5.50;;;3.30;;
4700;SDS011;8724;51.272;6.554;2024-03-23T08:50:02;7.00;;;2.70;;
4700;SDS011;8724;51.272;6.554;2024-03-23T08:52:28;9.90;;;3.00;;
4700;SDS011;8724;51.272;6.554;2024-03-23T08:54:55;13.10;;;3.30;;
4700;SDS011;8724;51.272;6.554;2024-03-23T08:57:22;7.40;;;3.20;;
4700;SDS011;8724;51.272;6.554;2024-03-23T08:59:51;8.03;;;3.10;;
4700;SDS011;8724;51.272;6.554;2024-03-23T09:02:17;6.33;;;3.10;;
4700;SDS011;8724;51.272;6.554;2024-03-23T09:04:44;9.50;;;3.17;;
4700;SDS011;8724;51.272;6.554;2024-03-23T09:07:10;8.17;;;3.37;;
4700;SDS011;8724;51.272;6.554;2024-03-23T09:09:38;5.83;;;2.90;;
4700;SDS011;8724;51.272;6.554;2024-03-23T09:12:04;9.90;;;3.10;;
4700;SDS011;8724;51.272;6.554;2024-03-23T09:14:32;8.07;;;3.63;;
4700;SDS011;8724;51.272;6.554;2024-03-23T09:17:00;6.30;;;2.90;;
4700;SDS011;8724;51.272;6.554;2024-03-23T09:19:28;6.93;;;2.70;;
4700;SDS011;8724;51.272;6.554;2024-03-23T09:21:54;6.00;;;2.50;;
4700;SDS011;8724;51.272;6.554;2024-03-23T09:24:21;8.67;;;3.70;;
4700;SDS011;8724;51.272;6.554;2024-03-23T09:26:48;12.23;;;3.77;;
4700;SDS011;8724;51.272;6.554;2024-03-23T09:29:15;8.17;;;3.30;;
4700;SDS011;8724;51.272;6.554;2024-03-23T09:31:41;5.23;;;2.57;;
4700;SDS011;8724;51.272;6.554;2024-03-23T09:34:10;8.90;;;2.87;;
4700;SDS011;8724;51.272;6.554;2024-03-23T09:36:36;11.90;;;3.80;;
4700;SDS011;8724;51.272;6.554;2024-03-23T09:39:03;6.90;;;2.67;;
4700;SDS011;8724;51.272;6.554;2024-03-23T09:41:31;7.40;;;2.33;;
4700;SDS011;8724;51.272;6.554;2024-03-23T09:43:58;7.10;;;2.83;;
4700;SDS011;8724;51.272;6.554;2024-03-23T09:46:24;8.90;;;2.90;;
4700;SDS011;8724;51.272;6.554;2024-03-23T09:48:52;8.17;;;2.90;;
4700;SDS011;8724;51.272;6.554;2024-03-23T09:51:19;6.20;;;2.47;;
4700;SDS011;8724;51.272;6.554;2024-03-23T09:53:46;4.47;;;2.10;;
4700;SDS011;8724;51.272;6.554;2024-03-23T09:56:12;6.27;;;2.30;;
4700;SDS011;8724;51.272;6.554;2024-03-23T09:58:39;7.57;;;2.63;;
4700;SDS011;8724;51.272;6.554;2024-03-23T10:01:06;9.90;;;2.30;;
4700;SDS011;8724;51.272;6.554;2024-03-23T10:03:41;6.57;;;2.57;;
4700;SDS011;8724;51.272;6.554;2024-03-23T10:06:08;4.57;;;2.00;;
4700;SDS011;8724;51.272;6.554;2024-03-23T10:08:36;2.93;;;1.50;;
4700;SDS011;8724;51.272;6.554;2024-03-23T10:11:12;4.00;;;1.90;;
4700;SDS011;8724;51.272;6.554;2024-03-23T10:13:41;1.90;;;1.33;;
4700;SDS011;8724;51.272;6.554;2024-03-23T10:16:08;3.70;;;1.57;;
4700;SDS011;8724;51.272;6.554;2024-03-23T10:18:36;2.43;;;1.30;;
4700;SDS011;8724;51.272;6.554;2024-03-23T10:21:07;2.97;;;1.37;;
4700;SDS011;8724;51.272;6.554;2024-03-23T10:23:38;5.20;;;1.33;;
4700;SDS011;8724;51.272;6.554;2024-03-23T10:26:15;7.67;;;1.53;;
4700;SDS011;8724;51.272;6.554;2024-03-23T10:28:51;1.67;;;0.93;;
4700;SDS011;8724;51.272;6.554;2024-03-23T10:31:18;6.73;;;1.50;;
4700;SDS011;8724;51.272;6.554;2024-03-23T10:33:45;3.13;;;1.40;;
4700;SDS011;8724;51.272;6.554;2024-03-23T10:36:12;6.30;;;1.23;;
4700;SDS011;8724;51.272;6.554;2024-03-23T10:38:41;1.43;;;1.03;;
4700;SDS011;8724;51.272;6.554;2024-03-23T10:41:09;1.23;;;0.90;;
4700;SDS011;8724;51.272;6.554;2024-03-23T10:43:36;4.50;;;1.30;;
4700;SDS011;8724;51.272;6.554;2024-03-23T10:46:03;0.67;;;0.60;;
4700;SDS011;8724;51.272;6.554;2024-03-23T10:48:31;0.90;;;0.70;;
4700;SDS011;8724;51.272;6.554;2024-03-23T10:50:57;1.00;;;0.80;;
4700;SDS011;8724;51.272;6.554;2024-03-23T10:53:25;1.50;;;1.07;;
4700;SDS011;8724;51.272;6.554;2024-03-23T10:55:54;3.73;;;1.20;;
4700;SDS011;8724;51.272;6.554;2024-03-23T10:58:23;1.50;;;1.13;;
4700;SDS011;8724;51.272;6.554;2024-03-23T11:00:53;1.90;;;1.10;;
4700;SDS011;8724;51.272;6.554;2024-03-23T11:03:30;2.30;;;1.20;;
4700;SDS011;8724;51.272;6.554;2024-03-23T11:06:00;2.30;;;1.00;;
4700;SDS011;8724;51.272;6.554;2024-03-23T11:08:34;6.07;;;1.70;;
4700;SDS011;8724;51.272;6.554;2024-03-23T11:11:12;8.33;;;1.43;;
4700;SDS011;8724;51.272;6.554;2024-03-23T11:13:40;2.20;;;1.20;;
4700;SDS011;8724;51.272;6.554;2024-03-23T11:16:13;2.47;;;1.27;;
4700;SDS011;8724;51.272;6.554;2024-03-23T11:18:41;2.20;;;1.17;;
4700;SDS011;8724;51.272;6.554;2024-03-23T11:21:09;2.50;;;1.30;;
4700;SDS011;8724;51.272;6.554;2024-03-23T11:23:36;2.83;;;1.20;;
4700;SDS011;8724;51.272;6.554;2024-03-23T11:26:02;2.03;;;1.47;;
4700;SDS011;8724;51.272;6.554;2024-03-23T11:28:35;4.30;;;1.77;;
4700;SDS011;8724;51.272;6.554;2024-03-23T11:31:01;9.37;;;5.47;;
4700;SDS011;8724;51.272;6.554;2024-03-23T11:33:35;2.53;;;1.70;;
4700;SDS011;8724;51.272;6.554;2024-03-23T11:36:01;6.37;;;2.20;;
4700;SDS011;8724;51.272;6.554;2024-03-23T11:38:29;4.47;;;1.30;;
4700;SDS011;8724;51.272;6.554;2024-03-23T11:41:02;5.00;;;0.90;;
4700;SDS011;8724;51.272;6.554;2024-03-23T11:43:29;1.87;;;1.10;;
4700;SDS011;8724;51.272;6.554;2024-03-23T11:45:57;1.30;;;0.90;;
4700;SDS011;8724;51.272;6.554;2024-03-23T11:48:25;5.70;;;0.97;;
4700;SDS011;8724;51.272;6.554;2024-03-23T11:50:54;1.80;;;1.03;;
4700;SDS011;8724;51.272;6.554;2024-03-23T11:53:23;2.50;;;1.50;;
4700;SDS011;8724;51.272;6.554;2024-03-23T11:55:54;1.90;;;1.30;;
4700;SDS011;8724;51.272;6.554;2024-03-23T11:58:23;2.73;;;1.23;;
4700;SDS011;8724;51.272;6.554;2024-03-23T12:00:50;3.40;;;1.20;;
4700;SDS011;8724;51.272;6.554;2024-03-23T12:03:19;1.73;;;1.13;;
4700;SDS011;8724;51.272;6.554;2024-03-23T12:05:47;1.47;;;1.37;;
4700;SDS011;8724;51.272;6.554;2024-03-23T12:08:19;1.10;;;0.77;;
4700;SDS011;8724;51.272;6.554;2024-03-23T12:10:48;2.13;;;1.00;;
4700;SDS011;8724;51.272;6.554;2024-03-23T12:13:16;1.30;;;1.20;;
4700;SDS011;8724;51.272;6.554;2024-03-23T12:15:44;2.20;;;2.00;;
4700;SDS011;8724;51.272;6.554;2024-03-23T12:18:12;3.33;;;1.83;;
4700;SDS011;8724;51.272;6.554;2024-03-23T12:20:40;2.03;;;1.50;;
4700;SDS011;8724;51.272;6.554;2024-03-23T12:23:08;3.83;;;1.50;;
4700;SDS011;8724;51.272;6.554;2024-03-23T12:25:37;3.87;;;1.60;;
4700;SDS011;8724;51.272;6.554;2024-03-23T12:28:06;2.13;;;1.13;;
4700;SDS011;8724;51.272;6.554;2024-03-23T12:30:33;1.87;;;1.47;;
4700;SDS011;8724;51.272;6.554;2024-03-23T12:33:01;1.73;;;1.20;;
4700;SDS011;8724;51.272;6.554;2024-03-23T12:35:29;2.70;;;1.20;;
4700;SDS011;8724;51.272;6.554;2024-03-23T12:37:57;2.30;;;1.10;;
4700;SDS011;8724;51.272;6.554;2024-03-23T12:40:24;2.50;;;1.57;;
4700;SDS011;8724;51.272;6.554;2024-03-23T12:42:52;2.43;;;1.20;;
4700;SDS011;8724;51.272;6.554;2024-03-23T12:45:18;1.40;;;0.93;;
4700;SDS011;8724;51.272;6.554;2024-03-23T12:47:45;3.40;;;1.33;;
4700;SDS011;8724;51.272;6.554;2024-03-23T12:50:11;3.43;;;1.40;;
4700;SDS011;8724;51.272;6.554;2024-03-23T12:52:38;4.40;;;1.40;;
4700;SDS011;8724;51.272;6.554;2024-03-23T12:55:07;4.10;;;1.40;;
4700;SDS011;8724;51.272;6.554;2024-03-23T12:57:34;2.50;;;1.70;;
4700;SDS011;8724;51.272;6.554;2024-03-23T13:00:00;1.20;;;0.80;;
4700;SDS011;8724;51.272;6.554;2024-03-23T13:02:28;5.93;;;1.17;;
4700;SDS011;8724;51.272;6.554;2024-03-23T13:04:55;1.23;;;0.93;;
4700;SDS011;8724;51.272;6.554;2024-03-23T13:07:22;1.47;;;1.00;;
4700;SDS011;8724;51.272;6.554;2024-03-23T13:09:50;2.40;;;1.10;;
4700;SDS011;8724;51.272;6.554;2024-03-23T13:12:19;3.40;;;1.10;;
4700;SDS011;8724;51.272;6.554;2024-03-23T13:14:45;2.53;;;1.00;;
4700;SDS011;8724;51.272;6.554;2024-03-23T13:17:13;2.27;;;1.10;;
4700;SDS011;8724;51.272;6.554;2024-03-23T13:19:40;1.67;;;1.47;;
4700;SDS011;8724;51.272;6.554;2024-03-23T13:22:07;1.33;;;0.77;;
4700;SDS011;8724;51.272;6.554;2024-03-23T13:24:33;1.93;;;0.90;;
4700;SDS011;8724;51.272;6.554;2024-03-23T13:27:01;1.60;;;1.20;;
4700;SDS011;8724;51.272;6.554;2024-03-23T13:29:29;4.53;;;1.20;;
4700;SDS011;8724;51.272;6.554;2024-03-23T13:31:56;3.30;;;1.10;;
4700;SDS011;8724;51.272;6.554;2024-03-23T13:34:22;2.83;;;1.07;;
4700;SDS011;8724;51.272;6.554;2024-03-23T13:36:49;3.57;;;1.67;;
4700;SDS011;8724;51.272;6.554;2024-03-23T13:39:15;2.10;;;1.00;;
4700;SDS011;8724;51.272;6.554;2024-03-23T13:41:42;4.33;;;2.20;;
4700;SDS011;8724;51.272;6.554;2024-03-23T13:44:09;4.00;;;1.20;;
4700;SDS011;8724;51.272;6.554;2024-03-23T13:46:39;4.83;;;1.73;;
4700;SDS011;8724;51.272;6.554;2024-03-23T13:49:08;1.73;;;1.20;;
4700;SDS011;8724;51.272;6.554;2024-03-23T13:51:50;2.90;;;0.90;;
4700;SDS011;8724;51.272;6.554;2024-03-23T13:54:16;3.40;;;1.10;;
4700;SDS011;8724;51.272;6.554;2024-03-23T13:56:43;1.97;;;1.30;;
4700;SDS011;8724;51.272;6.554;2024-03-23T13:59:09;1.60;;;1.07;;
4700;SDS011;8724;51.272;6.554;2024-03-23T14:01:38;3.30;;;1.70;;
4700;SDS011;8724;51.272;6.554;2024-03-23T14:04:04;1.37;;;1.27;;
4700;SDS011;8724;51.272;6.554;2024-03-23T14:06:32;2.27;;;1.47;;
4700;SDS011;8724;51.272;6.554;2024-03-23T14:08:58;1.70;;;1.37;;
4700;SDS011;8724;51.272;6.554;2024-03-23T14:11:25;2.90;;;1.40;;
4700;SDS011;8724;51.272;6.554;2024-03-23T14:13:52;4.73;;;1.33;;
4700;SDS011;8724;51.272;6.554;2024-03-23T14:16:19;2.07;;;1.40;;
4700;SDS011;8724;51.272;6.554;2024-03-23T14:18:47;3.97;;;1.40;;
4700;SDS011;8724;51.272;6.554;2024-03-23T14:21:14;2.33;;;1.10;;
4700;SDS011;8724;51.272;6.554;2024-03-23T14:23:40;1.43;;;1.00;;
4700;SDS011;8724;51.272;6.554;2024-03-23T14:26:07;1.30;;;1.07;;
4700;SDS011;8724;51.272;6.554;2024-03-23T14:28:34;1.70;;;1.10;;
4700;SDS011;8724;51.272;6.554;2024-03-23T14:31:01;1.30;;;0.80;;
4700;SDS011;8724;51.272;6.554;2024-03-23T14:33:35;0.80;;;0.70;;
4700;SDS011;8724;51.272;6.554;2024-03-23T14:36:03;1.10;;;0.83;;
4700;SDS011;8724;51.272;6.554;2024-03-23T14:38:30;2.80;;;1.80;;
4700;SDS011;8724;51.272;6.554;2024-03-23T14:40:58;2.33;;;1.07;;
4700;SDS011;8724;51.272;6.554;2024-03-23T14:43:26;1.27;;;0.93;;
4700;SDS011;8724;51.272;6.554;2024-03-23T14:46:08;1.13;;;1.03;;
4700;SDS011;8724;51.272;6.554;2024-03-23T14:48:36;3.40;;;1.37;;
4700;SDS011;8724;51.272;6.554;2024-03-23T14:51:04;4.90;;;1.30;;
4700;SDS011;8724;51.272;6.554;2024-03-23T14:53:33;1.97;;;1.00;;
4700;SDS011;8724;51.272;6.554;2024-03-23T14:56:00;2.20;;;1.17;;
4700;SDS011;8724;51.272;6.554;2024-03-23T14:58:28;2.50;;;1.07;;
4700;SDS011;8724;51.272;6.554;2024-03-23T15:00:59;1.63;;;0.93;;
4700;SDS011;8724;51.272;6.554;2024-03-23T15:03:27;2.03;;;1.20;;
4700;SDS011;8724;51.272;6.554;2024-03-23T15:05:54;1.10;;;1.00;;
4700;SDS011;8724;51.272;6.554;2024-03-23T15:08:23;1.33;;;1.10;;
4700;SDS011;8724;51.272;6.554;2024-03-23T15:10:50;1.90;;;1.10;;
4700;SDS011;8724;51.272;6.554;2024-03-23T15:13:17;2.70;;;1.30;;
4700;SDS011;8724;51.272;6.554;2024-03-23T15:15:44;3.40;;;1.37;;
4700;SDS011;8724;51.272;6.554;2024-03-23T15:18:14;1.33;;;1.00;;
4700;SDS011;8724;51.272;6.554;2024-03-23T15:20:40;1.23;;;1.10;;
4700;SDS011;8724;51.272;6.554;2024-03-23T15:23:07;1.53;;;0.90;;
4700;SDS011;8724;51.272;6.554;2024-03-23T15:25:35;1.90;;;0.90;;
4700;SDS011;8724;51.272;6.554;2024-03-23T15:28:02;1.80;;;0.93;;
4700;SDS011;8724;51.272;6.554;2024-03-23T15:30:29;2.73;;;1.43;;
4700;SDS011;8724;51.272;6.554;2024-03-23T15:32:56;1.90;;;0.90;;
4700;SDS011;8724;51.272;6.554;2024-03-23T15:35:22;1.53;;;1.20;;
4700;SDS011;8724;51.272;6.554;2024-03-23T15:37:49;3.43;;;1.53;;
4700;SDS011;8724;51.272;6.554;2024-03-23T15:40:16;1.90;;;0.90;;
4700;SDS011;8724;51.272;6.554;2024-03-23T15:42:44;3.27;;;1.57;;
4700;SDS011;8724;51.272;6.554;2024-03-23T15:45:10;4.07;;;1.10;;
4700;SDS011;8724;51.272;6.554;2024-03-23T15:47:38;1.17;;;1.00;;
4700;SDS011;8724;51.272;6.554;2024-03-23T15:50:04;2.63;;;0.97;;
4700;SDS011;8724;51.272;6.554;2024-03-23T15:52:34;1.10;;;1.00;;
4700;SDS011;8724;51.272;6.554;2024-03-23T15:55:01;2.00;;;1.40;;
4700;SDS011;8724;51.272;6.554;2024-03-23T15:57:32;1.63;;;0.93;;
4700;SDS011;8724;51.272;6.554;2024-03-23T16:00:00;1.33;;;1.00;;
4700;SDS011;8724;51.272;6.554;2024-03-23T16:02:37;3.40;;;1.20;;
4700;SDS011;8724;51.272;6.554;2024-03-23T16:05:03;1.83;;;1.57;;
4700;SDS011;8724;51.272;6.554;2024-03-23T16:07:31;0.70;;;0.63;;
4700;SDS011;8724;51.272;6.554;2024-03-23T16:09:57;0.83;;;0.80;;
4700;SDS011;8724;51.272;6.554;2024-03-23T16:12:30;1.17;;;0.70;;